Time;durP1;ratioP1;P1;durP2;ratioP2;P2;SDS_P1;SDS_P2;PMS_P1;PMS_P2;Temp;Humidity;BMP_temperature;BMP_pressure;BME280_temperature;BME280_humidity;BME280_pressure;Samples;Min_cycle;Max_cycle;Signal;HPM_P1;HPM_P2
2021/07/14 00:02:00;;;;;;;3.67;0.93;;;16.90;99.90;;;;;;10338830;28;20125;-64
2021/07/14 00:07:04;;;;;;;4.78;0.73;;;16.90;99.90;;;;;;10344291;28;20108;-64
2021/07/14 00:12:08;;;;;;;5.65;1.00;;;16.90;99.90;;;;;;10342556;28;20081;-64
2021/07/14 00:22:15;;;;;;;4.82;0.80;;;16.90;99.90;;;;;;10339586;28;20112;-64
2021/07/14 00:27:16;;;;;;;4.80;0.90;;;16.90;99.90;;;;;;10344638;28;20081;-64
2021/07/14 00:32:18;;;;;;;8.93;0.70;;;16.80;99.90;;;;;;10345287;28;20053;-64
2021/07/14 00:37:21;;;;;;;2.92;0.80;;;16.80;99.90;;;;;;10338636;28;20488;-63
2021/07/14 00:42:23;;;;;;;4.20;0.80;;;16.70;99.90;;;;;;10340125;28;20042;-63
2021/07/14 00:47:30;;;;;;;1.20;0.90;;;16.80;99.90;;;;;;10339193;28;20143;-63
2021/07/14 00:52:33;;;;;;;3.42;0.80;;;16.90;99.90;;;;;;10338322;28;20073;-64
2021/07/14 00:57:35;;;;;;;1.92;0.70;;;16.90;99.90;;;;;;10339806;28;20050;-64
2021/07/14 01:02:37;;;;;;;10.57;1.23;;;16.80;99.90;;;;;;10336125;28;20058;-64
2021/07/14 01:07:57;;;;;;;1.83;0.95;;;16.80;99.90;;;;;;10336800;28;20053;-64
2021/07/14 01:13:14;;;;;;;1.38;1.00;;;16.80;99.90;;;;;;10336391;28;20424;-64
2021/07/14 01:18:31;;;;;;;4.28;0.85;;;16.70;99.90;;;;;;10337135;28;20046;-64
2021/07/14 01:23:45;;;;;;;3.22;0.75;;;16.70;99.90;;;;;;10291810;28;20054;-64
2021/07/14 01:28:49;;;;;;;1.75;1.00;;;16.70;99.90;;;;;;10338810;28;20049;-64
2021/07/14 01:33:57;;;;;;;3.03;1.23;;;16.70;99.90;;;;;;10334966;28;20042;-64
2021/07/14 01:39:00;;;;;;;2.42;0.80;;;16.70;99.90;;;;;;10339647;28;20081;-64
2021/07/14 01:44:03;;;;;;;4.40;0.95;;;16.70;99.90;;;;;;10338411;28;20053;-64
2021/07/14 01:49:09;;;;;;;0.98;0.80;;;16.70;99.90;;;;;;10339524;28;20041;-64
2021/07/14 01:54:14;;;;;;;1.10;0.90;;;16.70;99.90;;;;;;10339683;28;20156;-64
2021/07/14 01:59:17;;;;;;;1.75;1.25;;;16.70;99.90;;;;;;10348286;28;20054;-64
2021/07/14 02:04:31;;;;;;;4.95;1.10;;;16.70;99.90;;;;;;10332796;28;20109;-64
2021/07/14 02:09:34;;;;;;;3.92;1.70;;;16.70;99.90;;;;;;10290294;28;20492;-64
2021/07/14 02:14:47;;;;;;;4.55;0.77;;;16.60;99.90;;;;;;10331434;28;20124;-63
2021/07/14 02:20:19;;;;;;;1.65;0.80;;;16.60;99.90;;;;;;10333762;28;20065;-64
2021/07/14 02:25:21;;;;;;;5.68;0.80;;;16.70;99.90;;;;;;10276811;28;20477;-64
2021/07/14 02:30:23;;;;;;;2.88;1.10;;;16.60;99.90;;;;;;10330503;28;20093;-64
2021/07/14 02:35:27;;;;;;;4.40;0.77;;;16.60;99.90;;;;;;10332074;28;20045;-64
2021/07/14 02:40:55;;;;;;;3.55;0.93;;;16.60;99.90;;;;;;10331854;28;20107;-63
2021/07/14 02:46:01;;;;;;;2.40;0.90;;;16.60;99.90;;;;;;10333250;28;20243;-64
2021/07/14 02:51:04;;;;;;;3.08;0.88;;;16.50;99.90;;;;;;10337163;28;20045;-64
2021/07/14 02:56:15;;;;;;;5.13;0.80;;;16.50;99.90;;;;;;10328959;28;20491;-64
2021/07/14 03:01:20;;;;;;;3.80;0.90;;;16.50;99.90;;;;;;10335060;28;20037;-64
2021/07/14 03:06:22;;;;;;;3.65;0.95;;;16.50;99.90;;;;;;10337698;28;20074;-63
2021/07/14 03:11:24;;;;;;;2.03;0.80;;;16.40;99.90;;;;;;10336106;28;20041;-64
2021/07/14 03:16:26;;;;;;;1.45;1.10;;;16.40;99.90;;;;;;10332316;28;20050;-64
2021/07/14 03:21:30;;;;;;;6.20;1.20;;;16.40;99.90;;;;;;10348977;28;20050;-64
2021/07/14 03:26:33;;;;;;;3.45;0.70;;;16.30;99.90;;;;;;10333599;28;20050;-64
2021/07/14 03:31:36;;;;;;;4.07;0.90;;;16.30;99.90;;;;;;10336363;28;20050;-67
2021/07/14 03:36:39;;;;;;;3.58;0.90;;;16.30;99.90;;;;;;10332022;28;20045;-67
2021/07/14 03:41:41;;;;;;;5.63;1.00;;;16.20;99.90;;;;;;10333439;28;22716;-68
2021/07/14 03:46:43;;;;;;;3.60;0.90;;;16.30;99.90;;;;;;10334328;28;20058;-67
2021/07/14 03:51:48;;;;;;;3.50;0.80;;;16.30;99.90;;;;;;10342316;28;20066;-67
2021/07/14 03:56:50;;;;;;;2.13;1.58;;;16.30;99.90;;;;;;10333151;28;20104;-67
2021/07/14 04:01:54;;;;;;;3.70;0.90;;;16.30;99.90;;;;;;10335453;28;20054;-67
2021/07/14 04:07:00;;;;;;;1.20;0.95;;;16.50;99.90;;;;;;10336543;28;20084;-67
2021/07/14 04:12:03;;;;;;;1.93;1.37;;;16.40;99.90;;;;;;10335872;28;20081;-68
2021/07/14 04:17:05;;;;;;;2.30;1.60;;;16.40;99.90;;;;;;10337137;28;20761;-67
2021/07/14 04:22:09;;;;;;;2.17;1.40;;;16.40;99.90;;;;;;10333769;28;20661;-68
2021/07/14 04:27:11;;;;;;;1.15;0.88;;;16.40;99.90;;;;;;10330817;28;20058;-68
2021/07/14 04:32:13;;;;;;;1.33;0.80;;;16.40;99.90;;;;;;10335308;28;20104;-67
2021/07/14 04:37:15;;;;;;;2.42;1.00;;;16.40;99.90;;;;;;10331007;28;20116;-67
2021/07/14 04:42:16;;;;;;;2.00;1.10;;;16.50;99.90;;;;;;10343245;28;20054;-72
2021/07/14 04:47:19;;;;;;;2.33;1.50;;;16.50;99.90;;;;;;10343330;28;20046;-72
2021/07/14 04:52:21;;;;;;;3.78;1.48;;;16.60;99.90;;;;;;10342145;28;20141;-71
2021/07/14 04:57:22;;;;;;;4.18;1.27;;;16.60;99.90;;;;;;10335991;28;20065;-68
2021/07/14 05:02:24;;;;;;;1.95;1.00;;;16.70;99.90;;;;;;10336077;28;20096;-69
2021/07/14 05:07:28;;;;;;;2.55;1.20;;;16.60;99.90;;;;;;10337497;28;20381;-69
2021/07/14 05:12:30;;;;;;;2.08;1.38;;;16.70;99.90;;;;;;10339940;28;20787;-70
2021/07/14 05:17:32;;;;;;;1.73;1.40;;;16.70;99.90;;;;;;10339384;28;20038;-69
2021/07/14 05:22:34;;;;;;;3.13;1.27;;;16.60;99.90;;;;;;10340412;28;20078;-69
2021/07/14 05:27:36;;;;;;;6.78;2.33;;;16.80;99.90;;;;;;10335720;28;20050;-69
2021/07/14 05:32:37;;;;;;;4.32;1.10;;;16.80;99.90;;;;;;10338294;28;20498;-70
2021/07/14 05:37:39;;;;;;;2.97;1.00;;;16.80;99.90;;;;;;10336650;28;20054;-69
2021/07/14 05:42:41;;;;;;;2.15;0.90;;;16.80;99.90;;;;;;10341111;28;20042;-70
2021/07/14 05:47:43;;;;;;;1.10;0.77;;;16.70;99.90;;;;;;10336262;28;20443;-68
2021/07/14 05:52:44;;;;;;;1.63;1.10;;;16.70;99.90;;;;;;10339621;28;20050;-68
2021/07/14 05:57:46;;;;;;;1.83;0.90;;;16.90;99.90;;;;;;10350722;28;20212;-69
2021/07/14 06:02:48;;;;;;;0.80;0.60;;;16.70;99.90;;;;;;10335460;28;20800;-65
2021/07/14 06:07:49;;;;;;;3.08;0.77;;;16.90;99.90;;;;;;10337775;28;20120;-66
2021/07/14 06:12:56;;;;;;;1.77;0.95;;;16.80;99.90;;;;;;10334851;28;20065;-65
2021/07/14 06:17:58;;;;;;;1.60;0.90;;;16.70;99.90;;;;;;10333689;28;20045;-63
2021/07/14 06:23:00;;;;;;;2.10;0.73;;;16.70;99.90;;;;;;10333975;28;20073;-64
2021/07/14 06:28:05;;;;;;;1.45;0.73;;;16.80;99.90;;;;;;10333071;28;20377;-64
2021/07/14 06:33:06;;;;;;;2.85;1.10;;;16.80;99.90;;;;;;10335490;28;20806;-63
2021/07/14 06:38:08;;;;;;;2.83;0.70;;;16.70;99.90;;;;;;10331465;28;20049;-64
2021/07/14 06:43:15;;;;;;;1.50;0.85;;;16.70;99.90;;;;;;10334701;28;20054;-65
2021/07/14 06:48:17;;;;;;;13.43;0.93;;;16.70;99.90;;;;;;10332927;28;20069;-64
2021/07/14 06:53:19;;;;;;;3.85;0.95;;;16.60;99.90;;;;;;10338064;28;20109;-65
2021/07/14 06:58:20;;;;;;;1.20;0.88;;;16.70;99.90;;;;;;10337947;28;20057;-65
2021/07/14 07:03:22;;;;;;;2.95;1.40;;;16.80;99.90;;;;;;10332960;28;20108;-64
2021/07/14 07:08:24;;;;;;;1.98;1.35;;;16.60;99.90;;;;;;10335156;28;20053;-64
2021/07/14 07:13:26;;;;;;;1.55;0.73;;;16.60;99.90;;;;;;10340206;28;20107;-64
2021/07/14 07:18:29;;;;;;;4.60;1.15;;;16.50;99.90;;;;;;10333371;28;20077;-64
2021/07/14 07:23:31;;;;;;;2.38;1.95;;;16.70;99.90;;;;;;10332549;28;20104;-64
2021/07/14 07:28:39;;;;;;;4.25;1.10;;;16.90;99.90;;;;;;10333335;28;20100;-65
2021/07/14 07:33:41;;;;;;;3.55;1.25;;;16.80;99.90;;;;;;10333033;28;20050;-64
2021/07/14 07:38:42;;;;;;;6.05;1.42;;;16.90;99.90;;;;;;10334867;28;20100;-66
2021/07/14 07:43:44;;;;;;;9.35;2.90;;;16.90;99.90;;;;;;10339145;28;20050;-65
2021/07/14 07:48:46;;;;;;;4.45;1.33;;;16.90;99.90;;;;;;10333075;28;20050;-64
2021/07/14 07:53:48;;;;;;;3.88;2.15;;;16.90;99.90;;;;;;10331398;28;20132;-64
2021/07/14 07:58:50;;;;;;;1.85;0.82;;;16.80;99.90;;;;;;10334758;28;20488;-64
2021/07/14 08:03:52;;;;;;;1.08;0.85;;;16.90;99.90;;;;;;10339069;28;20081;-65
2021/07/14 08:08:54;;;;;;;3.20;1.00;;;17.00;99.90;;;;;;10331344;28;20572;-66
2021/07/14 08:13:59;;;;;;;6.85;1.20;;;17.10;99.90;;;;;;10337194;28;20065;-66
2021/07/14 08:19:01;;;;;;;5.80;0.98;;;17.00;99.90;;;;;;10340231;28;20054;-67
2021/07/14 08:24:03;;;;;;;4.55;1.00;;;17.10;99.90;;;;;;10336756;28;20058;-67
2021/07/14 08:29:05;;;;;;;2.60;1.00;;;17.20;99.90;;;;;;10328465;28;20104;-66
2021/07/14 08:34:06;;;;;;;3.22;0.98;;;17.10;99.90;;;;;;10328721;28;20941;-67
2021/07/14 08:39:08;;;;;;;2.47;1.10;;;17.10;99.90;;;;;;10327428;28;20579;-65
2021/07/14 08:44:13;;;;;;;4.18;1.35;;;17.30;99.90;;;;;;10324727;28;20231;-66
2021/07/14 08:49:15;;;;;;;1.83;1.13;;;17.20;99.90;;;;;;10324950;28;20054;-65
2021/07/14 08:54:17;;;;;;;5.25;1.45;;;17.10;99.90;;;;;;10333353;28;20544;-65
2021/07/14 08:59:20;;;;;;;3.33;1.52;;;17.00;99.90;;;;;;10324134;28;20127;-63
2021/07/14 09:04:22;;;;;;;2.80;1.13;;;17.10;99.90;;;;;;10340404;28;20050;-64
2021/07/14 09:09:23;;;;;;;4.15;1.00;;;17.00;99.90;;;;;;10338753;28;20531;-64
2021/07/14 09:14:34;;;;;;;2.83;1.40;;;17.10;99.90;;;;;;10339660;28;20046;-65
2021/07/14 09:19:35;;;;;;;4.43;1.20;;;16.80;99.90;;;;;;10337224;28;20038;-64
2021/07/14 09:24:40;;;;;;;6.28;1.23;;;16.80;99.90;;;;;;10337102;28;20046;-65
2021/07/14 09:30:09;;;;;;;3.42;1.92;;;16.70;99.90;;;;;;10340664;28;20065;-64
2021/07/14 09:35:11;;;;;;;6.07;2.10;;;17.00;99.90;;;;;;10295261;28;20572;-65
2021/07/14 09:40:17;;;;;;;2.75;1.75;;;17.10;99.90;;;;;;10341342;28;20049;-65
2021/07/14 09:45:39;;;;;;;5.55;2.42;;;16.90;99.90;;;;;;10336512;28;20559;-66
2021/07/14 09:50:44;;;;;;;14.48;3.55;;;17.00;99.90;;;;;;10292065;28;20096;-65
2021/07/14 09:55:52;;;;;;;5.13;1.40;;;16.90;99.90;;;;;;10340864;28;20046;-66
2021/07/14 10:00:57;;;;;;;5.22;1.70;;;17.00;99.90;;;;;;10336018;28;20046;-63
2021/07/14 10:06:07;;;;;;;2.05;1.48;;;17.10;99.90;;;;;;10337264;28;20293;-66
2021/07/14 10:11:21;;;;;;;5.47;2.33;;;17.40;99.90;;;;;;10335004;28;20545;-65
2021/07/14 10:16:27;;;;;;;5.22;1.15;;;17.60;99.90;;;;;;10335823;28;20145;-66
2021/07/14 10:21:30;;;;;;;3.00;1.00;;;17.70;99.90;;;;;;10349922;28;20358;-65
2021/07/14 10:26:34;;;;;;;2.50;1.40;;;17.70;99.90;;;;;;10336738;28;20481;-65
2021/07/14 10:31:37;;;;;;;4.10;1.58;;;17.60;99.90;;;;;;10335586;28;20058;-66
2021/07/14 10:36:39;;;;;;;3.28;1.52;;;17.70;99.90;;;;;;10333033;28;20045;-64
2021/07/14 10:41:41;;;;;;;2.65;1.25;;;17.60;99.90;;;;;;10337128;28;20133;-64
2021/07/14 10:46:44;;;;;;;4.18;1.65;;;17.60;99.90;;;;;;10331888;28;21259;-68
2021/07/14 10:51:46;;;;;;;8.32;5.22;;;17.60;99.90;;;;;;10331694;28;20038;-69
2021/07/14 10:56:48;;;;;;;6.30;1.90;;;17.60;99.90;;;;;;10336362;28;20452;-68
2021/07/14 11:01:52;;;;;;;5.80;2.50;;;17.60;99.90;;;;;;10333373;28;20404;-69
2021/07/14 11:06:58;;;;;;;3.92;2.22;;;17.70;99.90;;;;;;10334387;28;20050;-68
2021/07/14 11:12:02;;;;;;;5.90;2.80;;;17.70;99.90;;;;;;10337468;28;20054;-69
2021/07/14 11:17:05;;;;;;;7.07;2.28;;;17.70;99.90;;;;;;10336889;28;20052;-70
2021/07/14 11:22:07;;;;;;;4.63;2.30;;;17.80;99.90;;;;;;10337236;28;20049;-65
2021/07/14 11:27:18;;;;;;;2.08;1.73;;;17.90;99.90;;;;;;10330699;28;20432;-66
2021/07/14 11:32:37;;;;;;;7.97;2.13;;;17.70;99.90;;;;;;10334469;28;20124;-65
2021/07/14 11:37:41;;;;;;;2.53;1.95;;;17.50;99.90;;;;;;10285847;28;20285;-64
2021/07/14 11:42:59;;;;;;;3.92;2.22;;;17.60;99.90;;;;;;10334680;28;20099;-65
2021/07/14 11:48:08;;;;;;;3.97;1.73;;;17.50;99.90;;;;;;10333011;28;20065;-66
2021/07/14 11:53:28;;;;;;;4.55;2.65;;;17.50;99.90;;;;;;10340533;28;20070;-69
2021/07/14 11:58:42;;;;;;;5.07;2.35;;;17.10;99.90;;;;;;10340349;28;20057;-68
2021/07/14 12:04:01;;;;;;;4.82;3.30;;;17.20;99.90;;;;;;10341567;28;20134;-67
2021/07/14 12:09:23;;;;;;;7.47;2.97;;;17.20;99.90;;;;;;10295445;28;20057;-66
2021/07/14 12:14:32;;;;;;;6.78;3.72;;;16.90;99.90;;;;;;10344466;28;20485;-67
2021/07/14 12:19:40;;;;;;;5.80;3.63;;;16.80;99.90;;;;;;10345646;28;20512;-67
2021/07/14 12:24:49;;;;;;;7.32;3.97;;;17.00;99.90;;;;;;10343685;28;20477;-67
2021/07/14 12:30:16;;;;;;;5.95;3.90;;;16.90;99.90;;;;;;10347758;28;20208;-68
2021/07/14 12:35:27;;;;;;;6.00;3.33;;;16.90;99.90;;;;;;10295264;28;20124;-67
2021/07/14 12:40:30;;;;;;;7.40;3.65;;;16.90;99.90;;;;;;10337763;28;20108;-69
2021/07/14 12:45:37;;;;;;;6.53;4.18;;;16.90;99.90;;;;;;10340773;28;20058;-70
2021/07/14 12:50:44;;;;;;;5.15;4.03;;;16.90;99.90;;;;;;10337867;28;20054;-68
2021/07/14 12:55:47;;;;;;;4.50;3.08;;;16.90;99.90;;;;;;10334325;28;20061;-69
2021/07/14 13:01:00;;;;;;;5.68;3.30;;;16.90;99.90;;;;;;10339971;28;20069;-70
2021/07/14 13:06:05;;;;;;;9.35;3.30;;;17.00;99.90;;;;;;10336105;28;20489;-69
2021/07/14 13:11:09;;;;;;;6.22;3.65;;;17.10;99.90;;;;;;10339020;28;20058;-69
2021/07/14 13:16:10;;;;;;;4.07;3.38;;;17.10;99.90;;;;;;10336041;28;20473;-70
2021/07/14 13:21:23;;;;;;;10.38;3.15;;;17.30;99.90;;;;;;10340376;28;20465;-71
2021/07/14 13:26:25;;;;;;;4.80;2.67;;;17.40;99.90;;;;;;10337751;28;20571;-69
2021/07/14 13:31:28;;;;;;;3.92;3.08;;;17.60;99.90;;;;;;10342600;28;20081;-70
2021/07/14 13:36:37;;;;;;;5.88;3.00;;;17.60;99.90;;;;;;10340619;28;20038;-70
2021/07/14 13:41:40;;;;;;;3.63;2.55;;;17.70;99.90;;;;;;10338190;28;20712;-70
2021/07/14 13:46:43;;;;;;;7.05;2.50;;;17.70;99.90;;;;;;10334437;28;20425;-71
2021/07/14 13:51:54;;;;;;;4.38;2.40;;;17.70;99.90;;;;;;10333700;28;20066;-68
2021/07/14 13:57:00;;;;;;;1.90;1.50;;;17.80;99.90;;;;;;10334639;28;20049;-68
2021/07/14 14:02:09;;;;;;;3.40;1.20;;;17.80;99.90;;;;;;10339104;28;20069;-71
2021/07/14 14:07:17;;;;;;;4.10;1.30;;;17.60;99.90;;;;;;10332039;28;20037;-69
2021/07/14 14:12:22;;;;;;;4.07;1.35;;;17.60;99.90;;;;;;10350061;28;20042;-66
2021/07/14 14:17:24;;;;;;;5.65;2.10;;;17.70;99.90;;;;;;10332821;28;20053;-66
2021/07/14 14:22:28;;;;;;;2.95;1.30;;;17.60;99.90;;;;;;10348501;28;20052;-66
2021/07/14 14:32:53;;;;;;;4.50;1.05;;;17.70;99.90;;;;;;10333982;28;20490;-67
2021/07/14 14:37:55;;;;;;;1.92;0.80;;;17.70;99.90;;;;;;10339025;28;20054;-66
2021/07/14 14:42:57;;;;;;;2.25;0.60;;;17.70;99.90;;;;;;10333511;28;20105;-61
2021/07/14 14:47:59;;;;;;;1.98;0.93;;;17.80;99.90;;;;;;10332263;28;20105;-61
2021/07/14 14:53:19;;;;;;;1.35;0.60;;;17.80;99.90;;;;;;10335842;28;20050;-62
2021/07/14 14:58:21;;;;;;;1.67;0.55;;;17.90;99.90;;;;;;10333739;28;20054;-67
2021/07/14 15:03:23;;;;;;;3.15;0.93;;;17.90;99.90;;;;;;10332600;28;20447;-67
2021/07/14 15:08:24;;;;;;;5.53;0.60;;;18.00;99.90;;;;;;10339038;28;20520;-65
2021/07/14 15:13:27;;;;;;;2.35;0.40;;;18.00;99.90;;;;;;10345944;28;20054;-65
2021/07/14 15:18:36;;;;;;;0.45;0.20;;;18.20;99.90;;;;;;10335626;28;20042;-67
2021/07/14 15:23:39;;;;;;;0.50;0.20;;;18.80;99.90;;;;;;10339769;28;20053;-59
2021/07/14 15:28:44;;;;;;;1.80;0.20;;;18.60;99.90;;;;;;10332920;28;20120;-61
2021/07/14 15:33:46;;;;;;;0.63;0.30;;;18.70;99.90;;;;;;10330736;28;20053;-63
2021/07/14 15:38:48;;;;;;;0.47;0.30;;;18.60;99.90;;;;;;10336345;28;20046;-62
2021/07/14 15:43:50;;;;;;;0.30;0.30;;;18.50;99.90;;;;;;10331871;28;20109;-62
2021/07/14 15:48:52;;;;;;;0.80;0.38;;;18.50;99.90;;;;;;10335219;28;20048;-62
2021/07/14 15:53:54;;;;;;;0.70;0.50;;;18.40;99.90;;;;;;10336471;28;20105;-63
2021/07/14 15:58:57;;;;;;;1.80;0.40;;;18.30;99.90;;;;;;10338356;28;20051;-62
2021/07/14 16:03:59;;;;;;;1.55;0.82;;;18.20;99.90;;;;;;10330304;28;20074;-63
2021/07/14 16:09:00;;;;;;;0.80;0.40;;;18.20;99.90;;;;;;10336578;28;20509;-62
2021/07/14 16:14:03;;;;;;;0.65;0.43;;;18.10;99.90;;;;;;10331253;28;20116;-62
2021/07/14 16:19:08;;;;;;;0.80;0.70;;;18.10;99.90;;;;;;10336811;28;20108;-62
2021/07/14 16:24:10;;;;;;;3.20;0.60;;;18.10;99.90;;;;;;10332332;28;20050;-62
2021/07/14 16:29:11;;;;;;;1.00;0.45;;;18.10;99.90;;;;;;10330973;28;20600;-62
2021/07/14 16:34:13;;;;;;;1.55;0.80;;;18.00;99.90;;;;;;10340246;28;20073;-63
2021/07/14 16:39:15;;;;;;;1.30;0.50;;;17.70;99.90;;;;;;10338794;28;20085;-63
2021/07/14 16:44:16;;;;;;;2.25;0.77;;;17.70;99.90;;;;;;10341723;28;20148;-63
2021/07/14 16:49:18;;;;;;;2.28;0.98;;;17.50;99.90;;;;;;10343679;28;20069;-63
2021/07/14 16:54:20;;;;;;;3.20;0.98;;;17.50;99.90;;;;;;10337847;28;20117;-62
2021/07/14 16:59:22;;;;;;;1.45;0.95;;;17.70;99.90;;;;;;10350963;28;20490;-62
2021/07/14 17:04:23;;;;;;;2.47;0.93;;;17.70;99.90;;;;;;10336779;28;20778;-62
2021/07/14 17:09:25;;;;;;;2.28;0.90;;;17.70;99.90;;;;;;10339772;28;20049;-65
2021/07/14 17:14:27;;;;;;;2.85;0.80;;;17.70;99.90;;;;;;10335852;28;20045;-65
2021/07/14 17:19:29;;;;;;;1.38;0.75;;;17.60;99.90;;;;;;10338087;28;20053;-65
2021/07/14 17:24:31;;;;;;;5.72;1.55;;;17.60;99.90;;;;;;10341962;28;20049;-65
2021/07/14 17:29:33;;;;;;;1.13;0.93;;;17.60;99.90;;;;;;10339343;28;20053;-65
2021/07/14 17:34:34;;;;;;;3.22;0.70;;;17.40;99.90;;;;;;10339922;28;20065;-66
2021/07/14 17:39:36;;;;;;;3.28;0.80;;;17.40;99.90;;;;;;10342923;28;20559;-65
2021/07/14 17:44:38;;;;;;;1.63;0.70;;;17.40;99.90;;;;;;10338606;28;20038;-66
2021/07/14 17:49:39;;;;;;;4.57;2.08;;;17.40;99.90;;;;;;10338236;28;20050;-66
2021/07/14 17:54:42;;;;;;;0.70;0.60;;;17.50;99.90;;;;;;10339203;28;20050;-66
2021/07/14 17:59:43;;;;;;;1.48;0.70;;;17.60;99.90;;;;;;10341891;28;20080;-65
2021/07/14 18:04:46;;;;;;;1.20;0.70;;;17.60;99.90;;;;;;10341303;28;20062;-65
2021/07/14 18:09:48;;;;;;;3.55;0.80;;;17.60;99.90;;;;;;10341888;28;20066;-64
2021/07/14 18:14:49;;;;;;;4.13;1.95;;;17.60;99.90;;;;;;10342186;28;20046;-66
2021/07/14 18:19:51;;;;;;;2.05;1.45;;;17.60;99.90;;;;;;10342964;28;20053;-66
2021/07/14 18:24:53;;;;;;;3.30;0.93;;;17.70;99.90;;;;;;10339772;28;20058;-65
2021/07/14 18:29:54;;;;;;;0.80;0.60;;;17.70;99.90;;;;;;10338353;28;20093;-66
2021/07/14 18:34:58;;;;;;;0.85;0.55;;;17.80;99.90;;;;;;10341741;28;20112;-65
2021/07/14 18:40:00;;;;;;;1.08;0.65;;;17.80;99.90;;;;;;10339666;28;20054;-65
2021/07/14 18:45:06;;;;;;;1.27;0.50;;;17.70;99.90;;;;;;10341478;28;20058;-66
2021/07/14 18:50:08;;;;;;;0.73;0.45;;;17.70;99.90;;;;;;10338776;28;20100;-66
2021/07/14 18:55:12;;;;;;;3.05;1.05;;;17.70;99.90;;;;;;10341279;28;20042;-66
2021/07/14 19:00:21;;;;;;;1.48;0.40;;;17.80;99.90;;;;;;10337451;28;20053;-61
2021/07/14 19:05:23;;;;;;;1.35;0.40;;;17.80;99.90;;;;;;10343083;28;20425;-62
2021/07/14 19:10:25;;;;;;;29.95;1.20;;;17.80;99.90;;;;;;10336662;28;20058;-62
2021/07/14 19:15:27;;;;;;;0.50;0.40;;;17.70;99.90;;;;;;10338485;28;20104;-60
2021/07/14 19:20:31;;;;;;;1.65;0.20;;;17.80;99.90;;;;;;10334146;28;20049;-65
2021/07/14 19:25:33;;;;;;;0.50;0.40;;;17.80;99.90;;;;;;10337218;28;20057;-65
2021/07/14 19:30:40;;;;;;;1.85;0.28;;;17.70;99.90;;;;;;10335488;28;20054;-64
2021/07/14 19:35:42;;;;;;;1.38;0.30;;;17.70;99.90;;;;;;10335964;28;20112;-64
2021/07/14 19:40:43;;;;;;;2.33;0.50;;;17.80;99.90;;;;;;10334136;28;20046;-64
2021/07/14 19:45:45;;;;;;;0.82;0.52;;;17.80;99.90;;;;;;10331126;28;20105;-65
2021/07/14 19:50:50;;;;;;;3.22;0.63;;;17.70;99.90;;;;;;10339054;28;20404;-64
2021/07/14 19:55:51;;;;;;;2.40;0.43;;;17.80;99.90;;;;;;10327342;28;20054;-67
2021/07/14 20:00:53;;;;;;;0.77;0.45;;;17.80;99.90;;;;;;10331655;28;20087;-67
2021/07/14 20:05:55;;;;;;;2.72;0.40;;;17.80;99.90;;;;;;10331718;28;20480;-67
2021/07/14 20:11:00;;;;;;;4.00;0.32;;;17.70;99.90;;;;;;10353955;28;20037;-67
2021/07/14 20:16:02;;;;;;;1.00;0.40;;;17.70;99.90;;;;;;10354457;28;20116;-67
2021/07/14 20:21:04;;;;;;;1.10;0.50;;;17.70;99.90;;;;;;10343233;28;20445;-67
2021/07/14 20:26:06;;;;;;;2.22;0.45;;;17.70;99.90;;;;;;10340486;28;20104;-68
2021/07/14 20:31:09;;;;;;;1.20;0.30;;;17.60;99.90;;;;;;10327229;28;20093;-67
2021/07/14 20:36:12;;;;;;;4.72;0.60;;;17.60;99.90;;;;;;10345859;28;20050;-67
2021/07/14 20:41:14;;;;;;;0.77;0.30;;;17.60;99.90;;;;;;10341331;28;20046;-67
2021/07/14 20:46:15;;;;;;;0.50;0.50;;;17.60;99.90;;;;;;10340828;28;20121;-67
2021/07/14 20:51:17;;;;;;;0.65;0.30;;;17.60;99.90;;;;;;10337215;28;20519;-67
2021/07/14 20:56:19;;;;;;;0.82;0.45;;;17.50;99.90;;;;;;10341187;28;20049;-67
2021/07/14 21:01:21;;;;;;;0.45;0.40;;;17.20;99.90;;;;;;10338529;28;20101;-67
2021/07/14 21:06:23;;;;;;;0.40;0.40;;;17.10;99.90;;;;;;10341247;28;20065;-67
2021/07/14 21:11:25;;;;;;;0.73;0.47;;;16.70;99.90;;;;;;10341264;28;20519;-68
2021/07/14 21:16:27;;;;;;;5.07;1.85;;;16.50;99.90;;;;;;10341895;28;20108;-68
2021/07/14 21:21:30;;;;;;;1.25;0.50;;;16.50;99.90;;;;;;10338561;28;20062;-67
2021/07/14 21:26:31;;;;;;;1.17;1.00;;;16.40;99.90;;;;;;10340743;28;20440;-67
2021/07/14 21:31:33;;;;;;;2.78;0.90;;;16.50;99.90;;;;;;10342806;28;20073;-67
2021/07/14 21:36:35;;;;;;;1.30;0.60;;;16.50;99.90;;;;;;10342514;28;20050;-67
2021/07/14 21:41:37;;;;;;;1.10;0.40;;;16.60;99.90;;;;;;10339121;28;20398;-67
2021/07/14 21:46:38;;;;;;;2.70;0.40;;;16.60;99.90;;;;;;10330720;28;20072;-64
2021/07/14 21:51:40;;;;;;;2.13;0.50;;;16.60;99.90;;;;;;10341151;28;20050;-64
2021/07/14 21:56:42;;;;;;;3.13;0.43;;;16.70;99.90;;;;;;10339254;28;20568;-65
2021/07/14 22:01:46;;;;;;;5.45;0.57;;;16.60;99.90;;;;;;10336075;28;20563;-64
2021/07/14 22:06:48;;;;;;;0.70;0.40;;;16.70;99.90;;;;;;10334009;28;20053;-64
2021/07/14 22:11:50;;;;;;;0.88;0.32;;;16.70;99.90;;;;;;10333852;28;20054;-63
2021/07/14 22:16:51;;;;;;;2.13;0.47;;;16.70;99.90;;;;;;10336761;28;20058;-63
2021/07/14 22:21:53;;;;;;;1.77;0.38;;;16.70;99.90;;;;;;10336107;28;20054;-65
2021/07/14 22:26:56;;;;;;;0.75;0.40;;;16.60;99.90;;;;;;10330768;28;20038;-65
2021/07/14 22:31:57;;;;;;;2.25;0.40;;;16.60;99.90;;;;;;10321916;28;20053;-65
2021/07/14 22:37:00;;;;;;;2.00;0.40;;;16.60;99.90;;;;;;10338381;28;20058;-65
2021/07/14 22:42:04;;;;;;;3.05;0.40;;;16.60;99.90;;;;;;10336326;28;20112;-65
2021/07/14 22:47:07;;;;;;;1.00;0.38;;;16.60;99.90;;;;;;10337167;28;20088;-65
2021/07/14 22:52:08;;;;;;;0.70;0.32;;;16.60;99.90;;;;;;10337287;28;20359;-65
2021/07/14 22:57:10;;;;;;;0.82;0.50;;;16.50;99.90;;;;;;10339962;28;20100;-65
2021/07/14 23:02:12;;;;;;;1.05;0.40;;;16.50;99.90;;;;;;10333691;28;20062;-65
2021/07/14 23:07:14;;;;;;;2.67;0.40;;;16.40;99.90;;;;;;10336707;28;20467;-65
2021/07/14 23:12:15;;;;;;;0.40;0.38;;;16.40;99.90;;;;;;10336870;28;20058;-65
2021/07/14 23:17:17;;;;;;;2.25;0.40;;;16.40;99.90;;;;;;10334991;28;20125;-65
2021/07/14 23:22:19;;;;;;;0.82;0.40;;;16.40;99.90;;;;;;10333761;28;20055;-65
2021/07/14 23:27:20;;;;;;;0.50;0.40;;;16.30;99.90;;;;;;10347529;28;20050;-65
2021/07/14 23:32:22;;;;;;;1.27;0.40;;;16.40;99.90;;;;;;10335605;28;20107;-65
2021/07/14 23:37:24;;;;;;;1.70;0.50;;;16.40;99.90;;;;;;10331061;28;20456;-65
2021/07/14 23:42:26;;;;;;;0.90;0.60;;;16.30;99.90;;;;;;10332084;28;20054;-65
2021/07/14 23:47:28;;;;;;;4.55;0.70;;;16.30;99.90;;;;;;10333328;28;20050;-65
2021/07/14 23:52:29;;;;;;;2.25;0.85;;;16.30;99.90;;;;;;10330183;28;20137;-65
2021/07/14 23:57:31;;;;;;;1.90;0.98;;;16.30;99.90;;;;;;10336335;28;20050;-64
